Time;durP1;ratioP1;P1;durP2;ratioP2;P2;SDS_P1;SDS_P2;PMS_P1;PMS_P2;Temp;Humidity;BMP_temperature;BMP_pressure;BME280_temperature;BME280_humidity;BME280_pressure;Samples;Min_cycle;Max_cycle;Signal;HPM_P1;HPM_P2
2021/01/30 00:02:05;;;;;;;0.93;0.80;;;9.20;99.90;;;;;;5067335;28;20318;-52
2021/01/30 00:04:30;;;;;;;1.10;1.00;;;9.10;99.90;;;;;;5073984;28;20704;-53
2021/01/30 00:06:57;;;;;;;1.47;0.90;;;9.30;99.90;;;;;;5071424;28;20188;-53
2021/01/30 00:09:24;;;;;;;1.38;0.90;;;9.00;99.90;;;;;;5066604;28;20292;-52
2021/01/30 00:11:55;;;;;;;2.13;0.82;;;9.00;99.90;;;;;;5069191;28;20189;-54
2021/01/30 00:14:23;;;;;;;1.45;0.95;;;9.10;99.90;;;;;;5064127;28;20217;-53
2021/01/30 00:16:49;;;;;;;1.52;0.80;;;9.10;99.90;;;;;;5057000;28;20182;-53
2021/01/30 00:19:15;;;;;;;0.97;0.83;;;8.60;99.90;;;;;;5070398;28;20218;-53
2021/01/30 00:21:41;;;;;;;2.67;0.88;;;9.30;99.90;;;;;;5070265;28;20842;-52
2021/01/30 00:24:07;;;;;;;1.10;0.80;;;9.30;99.90;;;;;;5070347;28;20217;-53
2021/01/30 00:26:33;;;;;;;1.25;0.70;;;9.40;99.90;;;;;;5069713;28;20556;-53
2021/01/30 00:28:59;;;;;;;2.55;0.82;;;9.10;99.90;;;;;;5069665;28;20608;-53
2021/01/30 00:31:24;;;;;;;1.90;1.03;;;9.20;99.90;;;;;;5068257;28;20195;-53
2021/01/30 00:33:50;;;;;;;1.33;0.90;;;8.90;99.90;;;;;;5071207;28;20207;-53
2021/01/30 00:36:16;;;;;;;1.13;0.70;;;9.20;99.90;;;;;;5063052;28;20644;-53
2021/01/30 00:38:41;;;;;;;1.40;0.97;;;9.00;99.90;;;;;;5078609;28;20184;-53
2021/01/30 00:41:07;;;;;;;0.87;0.70;;;9.00;99.90;;;;;;5070276;28;20228;-53
2021/01/30 00:43:32;;;;;;;0.80;0.80;;;9.00;99.90;;;;;;5070104;28;20228;-53
2021/01/30 00:45:58;;;;;;;1.37;0.83;;;8.70;99.90;;;;;;5058827;28;20589;-53
2021/01/30 00:48:24;;;;;;;1.73;0.90;;;9.00;99.90;;;;;;5070322;28;20262;-53
2021/01/30 00:50:49;;;;;;;1.00;0.80;;;8.80;99.90;;;;;;5072365;28;20181;-53
2021/01/30 00:53:15;;;;;;;0.73;0.67;;;8.60;99.90;;;;;;5089364;28;20234;-53
2021/01/30 00:55:41;;;;;;;2.10;0.80;;;8.80;99.90;;;;;;5068430;28;20181;-53
2021/01/30 00:58:07;;;;;;;1.00;0.88;;;8.60;99.90;;;;;;5069662;28;20276;-53
2021/01/30 01:00:32;;;;;;;1.23;0.90;;;8.60;99.90;;;;;;5065263;28;20271;-53
2021/01/30 01:02:58;;;;;;;0.90;0.70;;;8.40;99.90;;;;;;5071600;28;20553;-53
2021/01/30 01:05:24;;;;;;;0.70;0.60;;;8.50;99.90;;;;;;5062366;28;20208;-52
2021/01/30 01:07:50;;;;;;;1.67;0.90;;;8.60;99.90;;;;;;5069447;28;20467;-53
2021/01/30 01:10:20;;;;;;;1.73;0.90;;;8.90;99.90;;;;;;5068637;28;20268;-53
2021/01/30 01:12:46;;;;;;;0.80;0.60;;;8.80;99.90;;;;;;5079441;28;20533;-53
2021/01/30 01:15:12;;;;;;;1.00;0.88;;;8.50;99.90;;;;;;5075015;28;20675;-53
2021/01/30 01:17:38;;;;;;;1.02;0.70;;;8.00;99.90;;;;;;5069614;28;20663;-53
2021/01/30 01:20:07;;;;;;;1.40;0.60;;;8.60;99.90;;;;;;5067887;28;20283;-53
2021/01/30 01:22:32;;;;;;;1.55;0.80;;;8.60;99.90;;;;;;5068002;28;20437;-53
2021/01/30 01:24:58;;;;;;;0.70;0.60;;;8.40;99.90;;;;;;5075242;28;20201;-53
2021/01/30 01:27:23;;;;;;;1.77;0.90;;;8.60;99.90;;;;;;5071468;28;20652;-53
2021/01/30 01:29:49;;;;;;;1.20;0.97;;;8.40;99.90;;;;;;5065039;28;20284;-53
2021/01/30 01:32:15;;;;;;;1.13;0.70;;;8.60;99.90;;;;;;5084398;28;20172;-52
2021/01/30 01:34:43;;;;;;;0.90;0.70;;;8.30;99.90;;;;;;5071195;28;20225;-53
2021/01/30 01:37:12;;;;;;;1.35;0.80;;;8.40;99.90;;;;;;5069628;28;20412;-53
2021/01/30 01:39:39;;;;;;;0.73;0.70;;;8.30;99.90;;;;;;5089403;28;20184;-53
2021/01/30 01:42:08;;;;;;;1.77;0.73;;;8.50;99.90;;;;;;5070600;28;20181;-53
2021/01/30 01:44:33;;;;;;;1.17;0.70;;;8.60;99.90;;;;;;5067744;28;20950;-53
2021/01/30 01:47:00;;;;;;;0.80;0.70;;;8.70;99.90;;;;;;5066849;28;20199;-54
2021/01/30 01:49:33;;;;;;;2.17;1.00;;;8.50;99.90;;;;;;5069215;28;20243;-54
2021/01/30 01:52:02;;;;;;;1.55;0.70;;;8.90;99.90;;;;;;5074452;28;20211;-54
2021/01/30 01:54:30;;;;;;;1.95;0.80;;;8.90;99.90;;;;;;5081111;28;20244;-53
2021/01/30 01:57:02;;;;;;;1.08;0.85;;;8.80;99.90;;;;;;5067557;28;20652;-53
2021/01/30 01:59:27;;;;;;;1.15;0.90;;;8.90;99.90;;;;;;5068298;28;20196;-54
2021/01/30 02:01:54;;;;;;;0.93;0.60;;;8.80;99.90;;;;;;5074634;28;20184;-53
2021/01/30 02:04:22;;;;;;;1.33;0.80;;;8.80;99.90;;;;;;5062858;28;20642;-54
2021/01/30 02:06:50;;;;;;;0.80;0.73;;;8.90;99.90;;;;;;5062537;28;20188;-54
2021/01/30 02:09:20;;;;;;;1.42;0.70;;;8.90;99.90;;;;;;5069228;28;20700;-54
2021/01/30 02:12:02;;;;;;;1.38;1.17;;;8.90;99.90;;;;;;5058207;28;20184;-52
2021/01/30 02:14:31;;;;;;;0.80;0.70;;;8.90;99.90;;;;;;5077022;28;20216;-53
2021/01/30 02:17:06;;;;;;;0.60;0.60;;;8.70;99.90;;;;;;5073515;28;20529;-53
2021/01/30 02:19:37;;;;;;;0.60;0.50;;;8.70;99.90;;;;;;5066766;28;20237;-53
2021/01/30 02:22:38;;;;;;;0.70;0.52;;;8.90;99.90;;;;;;5068145;28;20185;-54
2021/01/30 02:25:56;;;;;;;0.90;0.60;;;8.70;99.90;;;;;;5015637;28;20203;-54
2021/01/30 02:28:40;;;;;;;1.05;0.50;;;8.90;99.90;;;;;;5064327;28;20282;-54
2021/01/30 02:31:36;;;;;;;0.77;0.50;;;8.80;99.90;;;;;;5062553;28;20208;-53
2021/01/30 02:34:36;;;;;;;0.82;0.60;;;8.80;99.90;;;;;;5058494;28;20201;-54
2021/01/30 02:37:14;;;;;;;1.15;0.60;;;8.80;99.90;;;;;;5065013;28;20177;-54
2021/01/30 02:39:57;;;;;;;0.60;0.50;;;8.80;99.90;;;;;;5068288;28;20185;-54
2021/01/30 02:42:31;;;;;;;1.02;0.50;;;8.80;99.90;;;;;;5066222;28;20181;-53
2021/01/30 02:45:02;;;;;;;2.35;0.60;;;8.90;99.90;;;;;;5068142;28;20236;-53
2021/01/30 02:47:39;;;;;;;0.73;0.50;;;8.80;99.90;;;;;;5080951;28;20792;-53
2021/01/30 02:50:27;;;;;;;0.95;0.60;;;8.90;99.90;;;;;;5055335;28;20527;-53
2021/01/30 02:52:57;;;;;;;0.60;0.52;;;8.70;99.90;;;;;;5073992;28;20180;-53
2021/01/30 02:55:24;;;;;;;1.17;0.50;;;8.90;99.90;;;;;;5066057;28;20170;-53
2021/01/30 02:57:52;;;;;;;1.50;0.60;;;8.50;99.90;;;;;;5065142;28;20189;-53
2021/01/30 03:00:23;;;;;;;0.80;0.60;;;8.40;99.90;;;;;;5067427;28;20191;-53
2021/01/30 03:02:48;;;;;;;0.70;0.45;;;8.60;99.90;;;;;;5060793;28;20200;-53
2021/01/30 03:05:15;;;;;;;1.00;0.40;;;8.70;99.90;;;;;;5060026;28;20201;-53
2021/01/30 03:07:56;;;;;;;0.60;0.50;;;8.80;99.90;;;;;;5065813;28;20263;-53
2021/01/30 03:10:27;;;;;;;0.77;0.50;;;8.50;99.90;;;;;;5064548;28;20177;-53
2021/01/30 03:13:10;;;;;;;0.80;0.50;;;8.40;99.90;;;;;;5061499;28;20296;-53
2021/01/30 03:15:43;;;;;;;1.88;0.80;;;8.50;99.90;;;;;;5058707;28;20433;-53
2021/01/30 03:18:11;;;;;;;0.68;0.63;;;8.40;99.90;;;;;;5063255;28;20659;-54
2021/01/30 03:20:41;;;;;;;0.70;0.60;;;8.60;99.90;;;;;;5065799;28;20219;-53
2021/01/30 03:23:10;;;;;;;0.88;0.60;;;8.40;99.90;;;;;;5067497;28;20196;-53
2021/01/30 03:25:38;;;;;;;1.10;0.50;;;8.40;99.90;;;;;;5065310;28;20674;-54
2021/01/30 03:28:04;;;;;;;0.98;0.50;;;8.50;99.90;;;;;;5067690;28;20250;-54
2021/01/30 03:30:31;;;;;;;1.17;0.60;;;8.80;99.90;;;;;;5064186;28;20337;-54
2021/01/30 03:32:58;;;;;;;0.80;0.50;;;8.40;99.90;;;;;;5069676;28;20192;-54
2021/01/30 03:35:24;;;;;;;0.60;0.60;;;8.60;99.90;;;;;;5065967;28;20185;-52
2021/01/30 03:37:50;;;;;;;1.70;0.70;;;8.70;99.90;;;;;;5076918;28;20184;-54
2021/01/30 03:40:17;;;;;;;1.30;0.60;;;8.40;99.90;;;;;;5066057;28;20599;-54
2021/01/30 03:42:43;;;;;;;0.60;0.60;;;8.50;99.90;;;;;;5071509;28;20429;-53
2021/01/30 03:45:12;;;;;;;1.37;0.57;;;8.60;99.90;;;;;;5067048;28;20198;-54
2021/01/30 03:47:38;;;;;;;1.55;0.70;;;8.30;99.90;;;;;;5064674;28;20183;-53
2021/01/30 03:50:06;;;;;;;1.07;0.70;;;8.60;99.90;;;;;;5070927;28;20216;-53
2021/01/30 03:52:32;;;;;;;0.88;0.50;;;8.30;99.90;;;;;;5070721;28;20417;-53
2021/01/30 03:54:58;;;;;;;0.93;0.60;;;8.30;99.90;;;;;;5074990;28;20578;-53
2021/01/30 03:57:23;;;;;;;0.60;0.50;;;8.50;99.90;;;;;;5064272;28;20430;-53
2021/01/30 03:59:50;;;;;;;1.03;0.70;;;8.40;99.90;;;;;;5063009;28;20186;-53
2021/01/30 04:02:16;;;;;;;0.70;0.60;;;8.40;99.90;;;;;;5069587;28;20183;-53
2021/01/30 04:04:45;;;;;;;1.20;1.08;;;8.40;99.90;;;;;;5076505;28;20254;-53
2021/01/30 04:07:11;;;;;;;0.60;0.60;;;8.60;99.90;;;;;;5065479;28;20242;-53
2021/01/30 04:09:37;;;;;;;1.65;0.60;;;8.50;99.90;;;;;;5072025;28;20201;-54
2021/01/30 04:12:03;;;;;;;0.60;0.60;;;8.30;99.90;;;;;;5067293;28;20270;-53
2021/01/30 04:14:29;;;;;;;2.25;0.60;;;8.80;99.90;;;;;;5063658;28;20512;-52
2021/01/30 04:16:55;;;;;;;1.83;0.80;;;8.30;99.90;;;;;;5067284;28;20272;-54
2021/01/30 04:19:20;;;;;;;0.80;0.67;;;8.40;99.90;;;;;;5071396;28;20191;-54
2021/01/30 04:21:46;;;;;;;0.60;0.50;;;8.20;99.90;;;;;;5070523;28;20180;-53
2021/01/30 04:24:11;;;;;;;0.90;0.50;;;8.60;99.90;;;;;;5070193;28;20704;-53
2021/01/30 04:26:37;;;;;;;2.00;0.57;;;8.60;99.90;;;;;;5070352;28;20672;-53
2021/01/30 04:29:03;;;;;;;0.70;0.60;;;8.20;99.90;;;;;;5070678;28;20687;-54
2021/01/30 04:31:29;;;;;;;0.90;0.53;;;8.20;99.90;;;;;;5070110;28;20939;-54
2021/01/30 04:33:54;;;;;;;0.70;0.60;;;8.10;99.90;;;;;;5070522;28;20820;-53
2021/01/30 04:36:21;;;;;;;0.70;0.60;;;8.20;99.90;;;;;;5059771;28;20196;-53
2021/01/30 04:38:47;;;;;;;2.95;0.88;;;8.60;99.90;;;;;;5091269;28;20191;-53
2021/01/30 04:41:37;;;;;;;1.43;0.70;;;8.50;99.90;;;;;;5057821;28;20181;-53
2021/01/30 04:44:37;;;;;;;2.10;0.80;;;7.90;99.90;;;;;;5089839;28;20208;-52
2021/01/30 04:47:12;;;;;;;2.45;0.93;;;8.30;99.90;;;;;;5058746;28;20185;-52
2021/01/30 04:49:54;;;;;;;1.13;0.90;;;8.40;99.90;;;;;;5072404;28;20576;-52
2021/01/30 04:52:31;;;;;;;1.63;0.80;;;8.40;99.90;;;;;;5075955;28;20217;-54
2021/01/30 04:55:05;;;;;;;1.25;0.90;;;8.50;99.90;;;;;;5065220;28;20565;-54
2021/01/30 04:57:59;;;;;;;2.42;0.82;;;8.40;99.90;;;;;;5069872;28;20169;-53
2021/01/30 05:00:52;;;;;;;3.10;0.70;;;8.40;99.90;;;;;;5069782;28;20292;-53
2021/01/30 05:03:36;;;;;;;0.98;0.60;;;8.60;99.90;;;;;;5065676;28;20215;-54
2021/01/30 05:06:12;;;;;;;2.15;0.90;;;8.40;99.90;;;;;;5060271;28;20227;-53
2021/01/30 05:08:44;;;;;;;3.15;1.20;;;8.70;99.90;;;;;;5070560;28;20230;-53
2021/01/30 05:11:15;;;;;;;1.27;0.82;;;8.30;99.90;;;;;;5074420;28;20184;-52
2021/01/30 05:13:47;;;;;;;2.47;0.70;;;8.40;99.90;;;;;;5050855;28;20232;-53
2021/01/30 05:16:28;;;;;;;3.20;0.80;;;8.40;99.90;;;;;;5064858;28;20436;-54
2021/01/30 05:19:01;;;;;;;1.27;1.05;;;8.40;99.90;;;;;;5069781;28;20191;-53
2021/01/30 05:21:40;;;;;;;2.90;1.00;;;8.50;99.90;;;;;;5067650;28;20181;-53
2021/01/30 05:24:08;;;;;;;1.40;0.70;;;8.60;99.90;;;;;;5064501;28;20204;-53
2021/01/30 05:26:40;;;;;;;3.90;0.95;;;8.50;99.90;;;;;;5069924;28;20208;-54
2021/01/30 05:29:24;;;;;;;4.45;1.10;;;8.40;99.90;;;;;;5066146;28;20205;-53
2021/01/30 05:32:18;;;;;;;3.60;1.25;;;8.40;99.90;;;;;;5062895;28;20200;-52
2021/01/30 05:34:52;;;;;;;3.67;1.58;;;8.50;99.90;;;;;;5060813;28;20199;-52
2021/01/30 05:37:23;;;;;;;2.47;1.10;;;8.40;99.90;;;;;;5059226;28;20687;-53
2021/01/30 05:40:27;;;;;;;4.00;1.38;;;8.50;99.90;;;;;;5061490;28;20186;-53
2021/01/30 05:43:07;;;;;;;3.47;0.90;;;8.40;99.90;;;;;;5077263;28;20264;-53
2021/01/30 05:45:41;;;;;;;3.53;1.00;;;8.60;99.90;;;;;;5067374;28;20178;-53
2021/01/30 05:48:12;;;;;;;3.33;1.25;;;8.60;99.90;;;;;;5075573;28;20557;-53
2021/01/30 05:50:52;;;;;;;6.35;1.35;;;8.60;99.90;;;;;;5065724;28;20641;-53
2021/01/30 05:53:25;;;;;;;1.88;0.90;;;8.40;99.90;;;;;;5067193;28;20215;-53
2021/01/30 05:55:51;;;;;;;2.35;1.23;;;8.60;99.90;;;;;;5055623;28;20193;-53
2021/01/30 05:58:20;;;;;;;3.38;1.50;;;8.50;99.90;;;;;;5058439;28;20177;-53
2021/01/30 06:00:46;;;;;;;3.45;1.30;;;8.60;99.90;;;;;;5064697;28;20178;-52
2021/01/30 06:03:17;;;;;;;4.63;1.45;;;8.50;99.90;;;;;;5066250;28;20596;-52
2021/01/30 06:05:52;;;;;;;3.85;1.30;;;8.40;99.90;;;;;;5074337;28;20185;-53
2021/01/30 06:08:28;;;;;;;5.35;1.45;;;8.40;99.90;;;;;;5067819;28;20177;-53
2021/01/30 06:11:07;;;;;;;3.35;1.17;;;8.00;99.90;;;;;;5068266;28;20208;-53
2021/01/30 06:13:33;;;;;;;3.13;1.30;;;8.40;99.90;;;;;;5069942;28;20235;-52
2021/01/30 06:16:00;;;;;;;3.50;1.47;;;8.40;99.90;;;;;;5070895;28;20173;-53
2021/01/30 06:18:38;;;;;;;1.30;1.10;;;8.30;99.90;;;;;;5068150;28;20272;-53
2021/01/30 06:21:18;;;;;;;5.60;2.13;;;8.30;99.90;;;;;;5064402;28;20188;-52
2021/01/30 06:24:05;;;;;;;5.20;2.17;;;8.50;99.90;;;;;;5066365;28;20754;-53
2021/01/30 06:26:35;;;;;;;4.60;1.40;;;8.60;99.90;;;;;;5065428;28;20185;-53
2021/01/30 06:29:04;;;;;;;3.10;1.85;;;8.40;99.90;;;;;;5066981;28;20193;-53
2021/01/30 06:31:39;;;;;;;3.40;1.50;;;8.20;99.90;;;;;;5063085;28;20679;-52
2021/01/30 06:34:30;;;;;;;2.67;1.45;;;8.60;99.90;;;;;;5061343;28;20211;-53
2021/01/30 06:36:57;;;;;;;4.88;1.80;;;8.70;99.90;;;;;;5061745;28;20182;-53
2021/01/30 06:39:32;;;;;;;3.25;1.42;;;8.40;99.90;;;;;;5060849;28;20181;-53
2021/01/30 06:42:11;;;;;;;5.95;1.75;;;8.70;99.90;;;;;;5060486;28;20218;-53
2021/01/30 06:44:38;;;;;;;4.22;1.20;;;8.50;99.90;;;;;;5062265;28;20230;-53
2021/01/30 06:47:15;;;;;;;5.93;1.45;;;8.30;99.90;;;;;;5071017;28;20189;-52
2021/01/30 06:50:03;;;;;;;4.13;1.90;;;8.50;99.90;;;;;;5057015;28;20255;-53
2021/01/30 06:52:31;;;;;;;5.00;1.50;;;8.60;99.90;;;;;;5064361;28;20196;-53
2021/01/30 06:55:06;;;;;;;2.10;1.90;;;8.60;99.90;;;;;;5060582;28;20270;-52
2021/01/30 06:57:34;;;;;;;2.78;1.25;;;8.50;99.90;;;;;;5057186;28;20176;-53
2021/01/30 07:00:09;;;;;;;4.15;1.23;;;8.50;99.90;;;;;;5061374;28;20307;-53
2021/01/30 07:02:39;;;;;;;2.72;1.45;;;8.50;99.90;;;;;;5057226;28;20230;-52
2021/01/30 07:05:08;;;;;;;7.38;2.00;;;8.50;99.90;;;;;;5053016;28;20206;-53
2021/01/30 07:08:20;;;;;;;4.85;1.65;;;8.60;99.90;;;;;;5067826;28;20181;-53
2021/01/30 07:11:01;;;;;;;8.48;2.00;;;8.90;99.90;;;;;;5056994;28;20226;-53
2021/01/30 07:13:35;;;;;;;3.20;1.30;;;8.50;99.90;;;;;;5060168;28;20299;-53
2021/01/30 07:16:13;;;;;;;3.50;1.45;;;8.80;99.90;;;;;;5061905;28;20225;-53
2021/01/30 07:19:19;;;;;;;4.40;1.35;;;8.90;99.90;;;;;;5063246;28;20642;-53
2021/01/30 07:21:49;;;;;;;3.90;1.52;;;8.80;99.90;;;;;;5060836;28;20656;-52
2021/01/30 07:24:25;;;;;;;3.60;1.50;;;8.70;99.90;;;;;;5060244;28;20271;-52
2021/01/30 07:27:16;;;;;;;4.22;1.92;;;8.90;99.90;;;;;;5061250;28;20204;-53
2021/01/30 07:29:57;;;;;;;4.07;1.58;;;8.80;99.90;;;;;;5057291;28;20616;-52
2021/01/30 07:32:40;;;;;;;8.25;1.67;;;9.00;99.90;;;;;;5059075;28;20330;-53
2021/01/30 07:35:18;;;;;;;3.67;1.50;;;8.80;99.90;;;;;;5060683;28;20196;-53
2021/01/30 07:38:08;;;;;;;5.18;1.70;;;9.10;99.90;;;;;;5063014;28;20271;-52
2021/01/30 07:40:59;;;;;;;7.53;1.80;;;8.90;99.90;;;;;;5063547;28;20181;-53
2021/01/30 07:43:27;;;;;;;5.25;1.58;;;8.90;99.90;;;;;;5063308;28;20206;-53
2021/01/30 07:46:05;;;;;;;2.28;1.52;;;9.00;99.90;;;;;;5056257;28;20185;-52
2021/01/30 07:48:37;;;;;;;4.68;2.05;;;8.80;99.90;;;;;;5065268;28;20201;-53
2021/01/30 07:51:09;;;;;;;3.42;1.85;;;8.70;99.90;;;;;;5052461;28;20267;-53
2021/01/30 07:53:35;;;;;;;4.50;1.70;;;8.80;99.90;;;;;;5053456;28;20246;-53
2021/01/30 07:56:19;;;;;;;6.50;2.03;;;9.00;99.90;;;;;;5061854;28;20191;-53
2021/01/30 07:59:02;;;;;;;6.25;2.17;;;9.00;99.90;;;;;;5059265;28;20668;-54
2021/01/30 08:01:55;;;;;;;4.40;1.90;;;8.80;99.90;;;;;;5056018;28;20861;-53
2021/01/30 08:04:40;;;;;;;4.07;1.98;;;9.00;99.90;;;;;;5059077;28;20629;-54
2021/01/30 08:07:17;;;;;;;6.00;1.98;;;8.80;99.90;;;;;;5053886;28;20185;-54
2021/01/30 08:10:14;;;;;;;4.35;1.65;;;8.80;99.90;;;;;;5057634;28;20202;-53
2021/01/30 08:13:00;;;;;;;5.88;1.70;;;9.10;99.90;;;;;;5059999;28;20197;-54
2021/01/30 08:15:58;;;;;;;4.63;2.00;;;9.10;99.90;;;;;;5058254;28;20169;-53
2021/01/30 08:18:41;;;;;;;5.22;1.88;;;9.30;99.90;;;;;;5034946;28;20264;-54
2021/01/30 08:21:41;;;;;;;5.00;2.25;;;9.30;99.90;;;;;;5067040;28;20448;-53
2021/01/30 08:24:16;;;;;;;5.85;2.00;;;9.50;99.90;;;;;;5068043;28;20231;-53
2021/01/30 08:27:00;;;;;;;3.30;1.60;;;9.40;99.90;;;;;;5072685;28;20253;-53
2021/01/30 08:29:36;;;;;;;3.80;1.70;;;8.90;99.90;;;;;;5083144;28;20623;-54
2021/01/30 08:32:23;;;;;;;3.67;1.50;;;9.70;99.90;;;;;;5064970;28;20590;-54
2021/01/30 08:34:53;;;;;;;6.30;1.77;;;9.50;99.90;;;;;;5057374;28;20211;-54
2021/01/30 08:37:18;;;;;;;5.88;1.80;;;9.70;99.90;;;;;;5082478;28;20185;-53
2021/01/30 08:40:13;;;;;;;3.73;1.37;;;9.60;99.90;;;;;;5080673;28;20226;-54
2021/01/30 08:43:00;;;;;;;4.65;1.95;;;9.70;99.90;;;;;;5067449;28;20197;-53
2021/01/30 08:45:29;;;;;;;1.98;1.50;;;9.70;99.90;;;;;;5068086;28;20285;-54
2021/01/30 08:47:55;;;;;;;3.08;1.85;;;9.70;99.90;;;;;;5069829;28;20318;-53
2021/01/30 08:50:44;;;;;;;4.40;1.97;;;9.50;99.90;;;;;;5061578;28;20208;-54
2021/01/30 08:53:26;;;;;;;3.00;1.98;;;9.70;99.90;;;;;;5078473;28;20267;-53
2021/01/30 08:55:57;;;;;;;3.65;1.90;;;9.60;99.90;;;;;;5082346;28;20196;-55
2021/01/30 08:58:37;;;;;;;4.65;2.92;;;9.50;99.90;;;;;;5072074;28;20193;-52
2021/01/30 09:01:21;;;;;;;4.05;1.80;;;9.70;99.90;;;;;;5062131;28;20668;-53
2021/01/30 09:04:03;;;;;;;3.55;1.60;;;9.70;99.90;;;;;;5066984;28;20239;-54
2021/01/30 09:06:41;;;;;;;5.57;1.85;;;9.70;99.90;;;;;;5083760;28;20276;-54
2021/01/30 09:09:10;;;;;;;4.10;1.50;;;9.50;99.90;;;;;;5064260;28;20646;-53
2021/01/30 09:11:53;;;;;;;4.38;1.85;;;9.40;99.90;;;;;;5061880;28;20577;-54
2021/01/30 09:14:18;;;;;;;6.72;2.33;;;9.50;99.90;;;;;;5063435;28;20219;-52
2021/01/30 09:16:52;;;;;;;5.57;2.03;;;9.80;99.90;;;;;;5070349;28;20174;-54
2021/01/30 09:19:46;;;;;;;5.80;2.78;;;9.60;99.90;;;;;;5066049;28;20185;-53
2021/01/30 09:22:42;;;;;;;6.93;1.85;;;9.70;99.90;;;;;;5065712;28;20588;-54
2021/01/30 09:25:41;;;;;;;9.85;2.40;;;9.90;99.90;;;;;;5068454;28;20210;-53
2021/01/30 09:28:21;;;;;;;6.53;2.03;;;9.50;99.90;;;;;;5061287;28;20195;-54
2021/01/30 09:31:03;;;;;;;4.60;2.30;;;9.80;99.90;;;;;;5072524;28;20183;-54
2021/01/30 09:33:53;;;;;;;6.20;2.30;;;9.70;99.90;;;;;;5061719;28;20461;-53
2021/01/30 09:36:26;;;;;;;7.57;2.58;;;9.90;99.90;;;;;;5071905;28;20335;-53
2021/01/30 09:38:59;;;;;;;5.20;2.70;;;9.80;99.90;;;;;;5071497;28;20272;-53
2021/01/30 09:41:27;;;;;;;7.70;2.85;;;9.80;99.90;;;;;;5087927;28;20191;-53
2021/01/30 09:44:19;;;;;;;3.63;1.63;;;10.00;99.90;;;;;;5070686;28;20690;-53
2021/01/30 09:46:48;;;;;;;4.90;2.45;;;9.90;99.90;;;;;;5077788;28;20203;-53
2021/01/30 09:49:27;;;;;;;4.80;2.05;;;10.00;99.90;;;;;;5074323;28;20200;-52
2021/01/30 09:51:55;;;;;;;6.18;2.00;;;9.90;99.90;;;;;;5080036;28;20285;-53
2021/01/30 09:54:24;;;;;;;7.78;2.85;;;10.20;99.90;;;;;;5061353;28;20535;-53
2021/01/30 09:56:51;;;;;;;4.43;2.17;;;10.10;99.90;;;;;;5061106;28;20177;-52
2021/01/30 09:59:23;;;;;;;5.75;2.35;;;10.20;99.90;;;;;;5067760;28;21832;-52
2021/01/30 10:01:49;;;;;;;8.35;2.60;;;10.20;99.90;;;;;;5055573;28;20680;-52
2021/01/30 10:04:23;;;;;;;3.93;2.00;;;10.20;99.90;;;;;;5063998;28;20201;-53
2021/01/30 10:06:51;;;;;;;5.88;2.08;;;10.60;99.90;;;;;;5063829;28;20180;-52
2021/01/30 10:09:21;;;;;;;5.30;2.65;;;10.20;99.90;;;;;;5069817;28;20236;-52
2021/01/30 10:11:54;;;;;;;6.03;2.85;;;10.50;99.90;;;;;;5078570;28;20718;-52
2021/01/30 10:14:21;;;;;;;8.57;2.33;;;10.50;99.90;;;;;;5046918;28;20564;-52
2021/01/30 10:17:00;;;;;;;5.22;3.03;;;10.50;99.90;;;;;;5068425;28;20183;-52
2021/01/30 10:19:29;;;;;;;5.57;2.72;;;10.80;99.90;;;;;;5056512;28;20466;-52
2021/01/30 10:21:55;;;;;;;8.52;2.22;;;11.00;99.90;;;;;;5064973;28;20216;-53
2021/01/30 10:24:27;;;;;;;3.83;2.10;;;11.10;99.90;;;;;;5067087;28;20214;-51
2021/01/30 10:27:08;;;;;;;6.63;2.53;;;11.00;99.90;;;;;;5067938;28;20260;-52
2021/01/30 10:29:33;;;;;;;4.93;2.08;;;11.20;99.90;;;;;;5079028;28;20206;-51
2021/01/30 10:32:08;;;;;;;6.13;1.83;;;10.80;99.90;;;;;;5065805;28;20671;-52
2021/01/30 10:34:43;;;;;;;6.90;3.05;;;10.90;99.90;;;;;;5054490;28;20207;-52
2021/01/30 10:37:38;;;;;;;7.53;2.47;;;10.90;99.90;;;;;;5057983;28;20199;-52
2021/01/30 10:40:13;;;;;;;6.03;2.20;;;11.10;99.90;;;;;;5059802;28;20212;-52
2021/01/30 10:42:39;;;;;;;5.65;2.00;;;10.60;99.90;;;;;;5061242;28;20186;-52
2021/01/30 10:45:14;;;;;;;3.20;1.70;;;10.80;99.90;;;;;;5063651;28;20230;-51
2021/01/30 10:47:40;;;;;;;3.78;1.98;;;10.80;99.90;;;;;;5065763;28;20196;-52
2021/01/30 10:50:09;;;;;;;6.40;2.00;;;10.50;99.90;;;;;;5062656;28;20193;-52
2021/01/30 10:52:34;;;;;;;3.83;2.28;;;10.60;99.90;;;;;;5065066;28;20600;-52
2021/01/30 10:55:27;;;;;;;4.10;1.80;;;10.70;99.90;;;;;;5061139;28;20202;-52
2021/01/30 10:58:11;;;;;;;4.70;2.10;;;10.60;99.90;;;;;;5053992;28;20275;-52
2021/01/30 11:00:37;;;;;;;4.63;2.20;;;10.50;99.90;;;;;;5087700;28;20567;-52
2021/01/30 11:03:19;;;;;;;5.77;2.23;;;10.70;99.90;;;;;;5055664;28;20196;-53
2021/01/30 11:05:45;;;;;;;8.75;2.72;;;10.60;99.90;;;;;;5071266;28;20779;-52
2021/01/30 11:08:11;;;;;;;12.30;2.73;;;10.50;99.90;;;;;;5086909;28;20294;-52
2021/01/30 11:10:47;;;;;;;6.83;2.47;;;10.40;99.90;;;;;;5054667;28;20567;-52
2021/01/30 11:13:18;;;;;;;8.45;2.63;;;10.10;99.90;;;;;;5060256;28;20221;-52
2021/01/30 11:15:44;;;;;;;7.68;2.00;;;10.30;99.90;;;;;;5068507;28;20181;-52
2021/01/30 11:18:34;;;;;;;7.05;2.60;;;10.50;99.90;;;;;;5055080;28;20178;-52
2021/01/30 11:21:01;;;;;;;4.60;2.83;;;10.10;99.90;;;;;;5054987;28;20312;-53
2021/01/30 11:23:46;;;;;;;7.90;2.80;;;10.10;99.90;;;;;;5064890;28;20206;-52
2021/01/30 11:26:16;;;;;;;6.88;2.80;;;10.40;99.90;;;;;;5066937;28;20186;-52
2021/01/30 11:28:43;;;;;;;4.25;2.10;;;10.60;99.90;;;;;;5062114;28;20576;-52
2021/01/30 11:31:10;;;;;;;6.65;4.00;;;9.90;99.90;;;;;;5055702;28;20190;-52
2021/01/30 11:33:36;;;;;;;4.65;1.77;;;10.40;99.90;;;;;;5061856;28;20576;-53
2021/01/30 11:36:04;;;;;;;3.05;1.90;;;10.60;99.90;;;;;;5056075;28;20263;-52
2021/01/30 11:38:30;;;;;;;5.50;3.08;;;10.70;99.90;;;;;;5063384;28;20186;-53
2021/01/30 11:40:58;;;;;;;8.87;2.70;;;10.60;99.90;;;;;;5074936;28;20666;-56
2021/01/30 11:43:24;;;;;;;5.22;1.67;;;10.40;99.90;;;;;;5067274;28;20288;-52
2021/01/30 11:45:51;;;;;;;5.57;1.90;;;10.50;99.90;;;;;;5062051;28;20193;-53
2021/01/30 11:48:19;;;;;;;5.28;2.30;;;10.60;99.90;;;;;;5062145;28;20935;-50
2021/01/30 11:50:46;;;;;;;9.02;3.30;;;10.80;99.90;;;;;;5061739;28;20266;-51
2021/01/30 11:53:14;;;;;;;6.32;2.70;;;10.70;99.90;;;;;;5065434;28;20640;-49
2021/01/30 11:55:41;;;;;;;6.45;2.03;;;10.50;99.90;;;;;;5058317;28;20200;-49
2021/01/30 11:58:06;;;;;;;5.13;1.65;;;10.30;99.90;;;;;;5061284;28;20261;-50
2021/01/30 12:00:32;;;;;;;6.37;1.93;;;9.90;99.90;;;;;;5062043;28;20334;-50
2021/01/30 12:02:59;;;;;;;5.22;1.80;;;10.10;99.90;;;;;;5056578;28;20204;-50
2021/01/30 12:05:27;;;;;;;4.22;1.90;;;10.30;99.90;;;;;;5062065;28;20182;-50
2021/01/30 12:07:59;;;;;;;4.53;2.67;;;9.90;99.90;;;;;;5063932;28;20680;-50
2021/01/30 12:10:26;;;;;;;7.53;2.70;;;10.10;99.90;;;;;;5051617;28;20241;-50
2021/01/30 12:12:52;;;;;;;5.78;2.20;;;10.20;99.90;;;;;;5062310;28;20213;-50
2021/01/30 12:15:18;;;;;;;3.77;1.67;;;10.00;99.90;;;;;;5062109;28;20667;-50
2021/01/30 12:17:46;;;;;;;5.93;3.63;;;10.00;99.90;;;;;;5073142;28;20556;-50
2021/01/30 12:20:19;;;;;;;5.00;1.85;;;9.70;99.90;;;;;;5072170;28;20447;-50
2021/01/30 12:22:45;;;;;;;2.20;1.73;;;9.90;99.90;;;;;;5071589;28;20192;-49
2021/01/30 12:25:11;;;;;;;7.00;2.72;;;9.80;99.90;;;;;;5063815;28;20475;-50
2021/01/30 12:27:40;;;;;;;4.50;3.00;;;9.50;99.90;;;;;;5089623;28;20437;-49
2021/01/30 12:30:07;;;;;;;4.75;1.67;;;9.70;99.90;;;;;;5089084;28;20579;-50
2021/01/30 12:32:32;;;;;;;5.10;2.90;;;9.60;99.90;;;;;;5068691;28;20284;-50
2021/01/30 12:34:58;;;;;;;4.90;1.70;;;9.50;99.90;;;;;;5065368;28;20292;-50
2021/01/30 12:37:24;;;;;;;7.53;2.70;;;9.20;99.90;;;;;;5089903;28;20564;-50
2021/01/30 12:39:49;;;;;;;4.83;1.63;;;9.30;99.90;;;;;;5064613;28;20272;-50
2021/01/30 12:42:15;;;;;;;5.60;1.83;;;9.30;99.90;;;;;;5069308;28;20272;-51
2021/01/30 12:44:41;;;;;;;5.67;3.53;;;9.50;99.90;;;;;;5065600;28;20680;-50
2021/01/30 12:47:06;;;;;;;7.47;3.60;;;9.60;99.90;;;;;;5069372;28;20199;-50
2021/01/30 12:49:32;;;;;;;4.50;2.13;;;9.30;99.90;;;;;;5067738;28;20554;-50
2021/01/30 12:51:58;;;;;;;5.03;2.07;;;9.70;99.90;;;;;;5061344;28;20640;-49
2021/01/30 12:54:25;;;;;;;7.03;2.10;;;9.70;99.90;;;;;;5068994;28;20229;-50
2021/01/30 12:56:51;;;;;;;3.88;2.50;;;9.70;99.90;;;;;;5056693;28;20250;-51
2021/01/30 12:59:16;;;;;;;3.60;1.90;;;10.00;99.90;;;;;;5068791;28;20185;-51
2021/01/30 13:01:42;;;;;;;2.60;1.90;;;9.90;99.90;;;;;;5057629;28;20439;-49
2021/01/30 13:04:08;;;;;;;4.70;1.70;;;9.90;99.90;;;;;;5080736;28;20781;-49
2021/01/30 13:06:34;;;;;;;4.83;1.87;;;10.00;99.90;;;;;;5064231;28;20552;-49
2021/01/30 13:09:01;;;;;;;5.25;1.95;;;10.00;99.90;;;;;;5069024;28;20197;-48
2021/01/30 13:11:26;;;;;;;4.22;2.10;;;9.80;99.90;;;;;;5066484;28;20205;-50
2021/01/30 13:13:52;;;;;;;5.23;2.13;;;10.10;99.90;;;;;;5065406;28;20225;-49
2021/01/30 13:16:18;;;;;;;3.73;2.20;;;10.00;99.90;;;;;;5062418;28;20448;-49
2021/01/30 13:18:43;;;;;;;4.43;2.40;;;9.60;99.90;;;;;;5065473;28;20181;-49
2021/01/30 13:21:09;;;;;;;6.57;1.87;;;9.60;99.90;;;;;;5060937;28;20185;-50
2021/01/30 13:23:36;;;;;;;5.20;1.73;;;9.60;99.90;;;;;;5066717;28;20224;-49
2021/01/30 13:26:05;;;;;;;4.00;2.13;;;9.80;99.90;;;;;;5069896;28;20738;-50